National Weather Service United States Department of Commerce

Airport Observations and Forecasts (from NWS CLE)

Cleveland Hopkins International Airport

 

FAA details


973
FTUS41 KCLE 240855 AAB
TAFCLE
TAF AMD
KCLE 240855Z 2409/2512 13011KT P6SM VCSH SCT040 OVC060
FM242200 11007KT 6SM -SHRA OVC030
FM250400 08007KT P6SM VCSH OVC015
FM250800 03004KT 3SM BR OVC007=

24 hours of observations

7-day forecast

Hourly - Tabular forecast  Hourly - Graph forecast

Terminal Information Board

Toledo Express Airport

 

FAA details


795
FTUS41 KCLE 240524
TAFTOL
TAF
KTOL 240524Z 2406/2506 12006KT P6SM VCSH OVC050
FM241000 08007KT P6SM VCSH OVC030
FM241400 09008KT P6SM VCSH SCT007 OVC015
TEMPO 2421/2423 BKN007 OVC015
FM242300 06007KT 6SM BR VCSH OVC007
FM250300 05007KT 3SM BR OVC003=

24 hours of observations

7-day forecast

Hourly - Tabular forecast  Hourly - Graph forecast

Terminal Information Board

Findlay Airport

 

FAA details


791
FTUS41 KCLE 240524
TAFFDY
TAF
KFDY 240524Z 2406/2506 12010KT P6SM VCSH OVC050
FM241400 10010KT P6SM VCSH OVC030
FM241700 10010KT P6SM VCSH SCT007 OVC015
FM242100 07008KT 6SM BR VCSH OVC007
FM250300 03006KT 3SM BR OVC003=

24 hours of observations

7-day forecast

Hourly - Tabular forecast   Hourly - Graph forecast

Terminal Information Board

Mansfield Lahm Airport

 

FAA details


794
FTUS41 KCLE 240524
TAFMFD
TAF
KMFD 240524Z 2406/2506 12010KT P6SM -SHRA OVC050
FM241400 12010G18KT 6SM -SHRA OVC025
FM242000 11010G18KT 6SM -SHRA OVC015
FM242300 09007KT 5SM BR VCSH OVC007
FM250500 VRB03KT 3SM BR OVC007=

24 hours of observations

7-day forecast

Hourly - Tabular forecast   Hourly - Graph forecast

Terminal Information Board

Akron-Canton Airport

 

FAA details


792
FTUS41 KCLE 240524
TAFCAK
TAF
KCAK 240524Z 2406/2506 12011KT P6SM VCSH OVC050
FM241800 12014KT 5SM -SHRA OVC030
FM242300 10011KT 5SM -SHRA BR OVC015=

24 hours of observations

7-day forecast

Hourly - Tabular forecast   Hourly - Graph forecast

Terminal Information Board

Youngstown-Warren Regional Airport

 

FAA details


793
FTUS41 KCLE 240524
TAFYNG
TAF
KYNG 240524Z 2406/2506 13011KT P6SM VCSH OVC060
FM241800 13010G18KT 4SM SHRA OVC025
FM242300 11009KT 6SM -SHRA BR OVC020=

24 hours of observations

7-day forecast

Hourly - Tabular forecast   Hourly - Graph forecast

Terminal Information Board

Erie International Airport

 

FAA details


188
FTUS41 KCLE 240703 AAA
TAFERI
TAF AMD
KERI 240703Z 2407/2506 VRB05KT P6SM OVC120
FM241200 16010G20KT P6SM OVC120
FM241700 15015G25KT P6SM SCT050 OVC120
FM242300 12011KT P6SM -SHRA OVC035
FM250200 12007KT 6SM -SHRA BR OVC030=

24 hours of observations

7-day forecast

Hourly - Tabular Forecast  Hourly - Graph forecast

Terminal Information Board

The National Weather Service is Cleveland is responsible for the Terminal Areodome Forecasts for seven area airports in northern Ohio and northwest Pennsylvania.  Routine issuance times are by 00Z, 06Z, 12Z, and 18Z with amendments, as needed.

Latest Surface Analysis

Additional Current Conditions

Satellite

Radar
 
 

 

Center Weather Service Unit, Oberlin/ZOB

CWA/MIS    

 

The National Weather Service Center Weather Service Unit in Oberlin is responsible for the airspace above northern Ohio and northwest Pennsylvania and ajoining areas.

 

Aviaiton Weather Center National, AWC

AIRMETS & SIGMETS